Time;durP1;ratioP1;P1;durP2;ratioP2;P2;SDS_P1;SDS_P2;PMS_P1;PMS_P2;Temp;Humidity;BMP_temperature;BMP_pressure;BME280_temperature;BME280_humidity;BME280_pressure;Samples;Min_cycle;Max_cycle;Signal;HPM_P1;HPM_P2
2021/09/27 00:00:29;;;;;;;;;;;24.90;51.00;;;;;;488810;243;1221;-68
2021/09/27 00:02:30;;;;;;;;;;;24.80;51.10;;;;;;488803;243;1137;-69
2021/09/27 00:04:32;;;;;;;;;;;24.80;51.20;;;;;;488789;243;1285;-69
2021/09/27 00:06:33;;;;;;;;;;;24.90;50.90;;;;;;488927;243;2153;-68
2021/09/27 00:08:34;;;;;;;;;;;24.80;51.00;;;;;;488814;243;1122;-68
2021/09/27 00:10:36;;;;;;;;;;;24.90;51.00;;;;;;488840;243;1091;-68
2021/09/27 00:12:37;;;;;;;;;;;24.90;51.10;;;;;;488911;243;1080;-68
2021/09/27 00:14:38;;;;;;;;;;;24.80;51.30;;;;;;488865;243;1036;-68
2021/09/27 00:16:39;;;;;;;;;;;24.80;51.20;;;;;;488835;243;1220;-68
2021/09/27 00:18:41;;;;;;;;;;;24.80;51.30;;;;;;488848;243;1069;-68
2021/09/27 00:20:42;;;;;;;;;;;24.80;51.10;;;;;;488840;243;1164;-68
2021/09/27 00:22:43;;;;;;;;;;;24.90;51.10;;;;;;488786;243;1149;-68
2021/09/27 00:24:45;;;;;;;;;;;24.90;51.00;;;;;;488846;243;961;-68
2021/09/27 00:26:46;;;;;;;;;;;24.80;51.10;;;;;;488807;243;2119;-68
2021/09/27 00:28:47;;;;;;;;;;;24.60;51.60;;;;;;488896;243;1050;-69
2021/09/27 00:30:49;;;;;;;;;;;24.50;52.00;;;;;;488798;243;1119;-68
2021/09/27 00:32:50;;;;;;;;;;;24.50;52.20;;;;;;488743;243;1112;-68
2021/09/27 00:34:51;;;;;;;;;;;24.40;52.20;;;;;;488856;243;1198;-68
2021/09/27 00:36:53;;;;;;;;;;;24.40;52.30;;;;;;488722;243;1204;-68
2021/09/27 00:38:54;;;;;;;;;;;24.40;52.40;;;;;;488825;243;1075;-68
2021/09/27 00:40:55;;;;;;;;;;;24.30;52.60;;;;;;488800;243;1189;-68
2021/09/27 00:42:57;;;;;;;;;;;24.30;52.60;;;;;;488812;243;1043;-68
2021/09/27 00:44:58;;;;;;;;;;;24.30;52.60;;;;;;488855;243;1040;-68
2021/09/27 00:46:59;;;;;;;;;;;24.30;52.60;;;;;;488719;243;2115;-69
2021/09/27 00:49:01;;;;;;;;;;;24.20;52.70;;;;;;488886;243;982;-68
2021/09/27 00:51:02;;;;;;;;;;;24.30;52.70;;;;;;488797;243;1315;-68
2021/09/27 00:53:03;;;;;;;;;;;24.20;52.80;;;;;;488834;243;1113;-68
2021/09/27 00:55:05;;;;;;;;;;;24.30;52.70;;;;;;488924;243;1045;-68
2021/09/27 00:57:06;;;;;;;;;;;24.10;52.80;;;;;;488709;243;1209;-68
2021/09/27 00:59:07;;;;;;;;;;;24.00;53.20;;;;;;488771;243;1046;-68
2021/09/27 01:01:09;;;;;;;;;;;24.10;53.20;;;;;;488759;243;1028;-68
2021/09/27 01:03:10;;;;;;;;;;;24.10;53.30;;;;;;488750;243;1145;-68
2021/09/27 01:05:11;;;;;;;;;;;24.10;53.00;;;;;;488827;243;1219;-68
2021/09/27 01:07:12;;;;;;;;;;;24.00;53.10;;;;;;488818;243;2398;-68
2021/09/27 01:09:14;;;;;;;;;;;24.00;53.20;;;;;;488895;243;966;-68
2021/09/27 01:11:15;;;;;;;;;;;24.00;53.30;;;;;;488778;243;1217;-68
2021/09/27 01:13:16;;;;;;;;;;;24.00;53.20;;;;;;488805;243;1040;-68
2021/09/27 01:15:18;;;;;;;;;;;24.00;53.30;;;;;;488872;243;1079;-68
2021/09/27 01:17:20;;;;;;;;;;;24.00;53.20;;;;;;488819;243;1097;-68
2021/09/27 01:19:21;;;;;;;;;;;24.00;53.30;;;;;;488817;243;1157;-68
2021/09/27 01:21:22;;;;;;;;;;;24.00;53.30;;;;;;488770;243;1179;-69
2021/09/27 01:23:24;;;;;;;;;;;24.00;53.40;;;;;;488814;243;1134;-68
2021/09/27 01:25:25;;;;;;;;;;;24.00;53.40;;;;;;488866;243;1184;-68
2021/09/27 01:27:26;;;;;;;;;;;24.00;53.40;;;;;;488838;243;2133;-68
2021/09/27 01:29:27;;;;;;;;;;;24.00;53.50;;;;;;488854;243;1213;-68
2021/09/27 01:31:29;;;;;;;;;;;24.00;53.50;;;;;;488761;243;1226;-68
2021/09/27 01:33:30;;;;;;;;;;;24.00;53.40;;;;;;488876;243;1150;-69
2021/09/27 01:35:31;;;;;;;;;;;24.00;53.50;;;;;;488801;243;1215;-68
2021/09/27 01:37:33;;;;;;;;;;;24.10;53.40;;;;;;488839;243;1205;-68
2021/09/27 01:39:34;;;;;;;;;;;24.00;53.40;;;;;;488898;243;1037;-68
2021/09/27 01:41:35;;;;;;;;;;;24.00;53.50;;;;;;488812;243;1047;-68
2021/09/27 01:43:37;;;;;;;;;;;23.80;53.80;;;;;;488924;243;1076;-69
2021/09/27 01:45:38;;;;;;;;;;;23.80;53.90;;;;;;488737;243;1063;-68
2021/09/27 01:47:39;;;;;;;;;;;23.90;53.60;;;;;;488747;243;2114;-68
2021/09/27 01:49:41;;;;;;;;;;;24.00;53.60;;;;;;488782;243;1158;-68
2021/09/27 01:51:44;;;;;;;;;;;23.90;53.70;;;;;;488828;243;1198;-69
2021/09/27 01:53:43;;;;;;;;;;;23.90;53.70;;;;;;488762;243;1538;-68
2021/09/27 01:55:45;;;;;;;;;;;23.90;53.80;;;;;;488878;243;1036;-68
2021/09/27 01:57:46;;;;;;;;;;;23.90;53.80;;;;;;488812;243;985;-68
2021/09/27 01:59:48;;;;;;;;;;;23.90;53.60;;;;;;488902;243;1063;-68
2021/09/27 02:01:51;;;;;;;;;;;23.90;53.70;;;;;;488782;243;1106;-68
2021/09/27 02:03:50;;;;;;;;;;;23.80;53.70;;;;;;488683;243;1555;-68
2021/09/27 02:05:52;;;;;;;;;;;23.80;53.90;;;;;;488743;243;1329;-68
2021/09/27 02:07:53;;;;;;;;;;;23.90;53.60;;;;;;488843;243;2121;-68
2021/09/27 02:09:54;;;;;;;;;;;23.90;53.80;;;;;;488852;243;1127;-68
2021/09/27 02:11:56;;;;;;;;;;;23.90;53.60;;;;;;488849;243;1197;-68
2021/09/27 02:13:57;;;;;;;;;;;23.90;53.60;;;;;;488868;243;1006;-68
2021/09/27 02:15:58;;;;;;;;;;;23.90;53.80;;;;;;488724;243;1262;-68
2021/09/27 02:18:00;;;;;;;;;;;23.90;53.70;;;;;;488836;243;1087;-69
2021/09/27 02:20:01;;;;;;;;;;;23.90;53.70;;;;;;488766;243;1089;-68
2021/09/27 02:22:02;;;;;;;;;;;23.80;53.80;;;;;;488785;240;1275;-68
2021/09/27 02:24:04;;;;;;;;;;;23.90;53.60;;;;;;488822;243;1040;-68
2021/09/27 02:26:05;;;;;;;;;;;23.90;53.70;;;;;;488884;243;1246;-68
2021/09/27 02:28:06;;;;;;;;;;;23.90;53.70;;;;;;488793;243;2194;-68
2021/09/27 02:30:08;;;;;;;;;;;23.80;53.80;;;;;;488885;243;1195;-68
2021/09/27 02:32:09;;;;;;;;;;;23.80;53.90;;;;;;488782;243;1041;-69
2021/09/27 02:34:10;;;;;;;;;;;23.80;53.90;;;;;;488817;243;986;-69
2021/09/27 02:36:12;;;;;;;;;;;23.80;53.90;;;;;;488750;240;1299;-68
2021/09/27 02:38:13;;;;;;;;;;;23.80;54.00;;;;;;488942;243;953;-68
2021/09/27 02:40:14;;;;;;;;;;;23.80;53.80;;;;;;489004;243;1027;-68
2021/09/27 02:42:17;;;;;;;;;;;23.80;53.80;;;;;;488728;243;1242;-68
2021/09/27 02:44:17;;;;;;;;;;;23.90;53.60;;;;;;488813;243;1296;-68
2021/09/27 02:46:19;;;;;;;;;;;23.90;53.70;;;;;;488809;243;1086;-68
2021/09/27 02:48:21;;;;;;;;;;;23.90;53.70;;;;;;488829;243;2126;-68
2021/09/27 02:50:22;;;;;;;;;;;23.80;53.90;;;;;;488798;243;1400;-68
2021/09/27 02:52:23;;;;;;;;;;;23.80;54.00;;;;;;488755;243;1180;-68
2021/09/27 02:54:25;;;;;;;;;;;23.80;53.90;;;;;;488985;243;945;-68
2021/09/27 02:56:26;;;;;;;;;;;23.90;53.80;;;;;;488873;243;1420;-69
2021/09/27 02:58:27;;;;;;;;;;;23.90;53.80;;;;;;488883;243;1072;-68
2021/09/27 03:00:28;;;;;;;;;;;23.90;53.80;;;;;;488876;243;1046;-69
2021/09/27 03:02:30;;;;;;;;;;;23.80;53.90;;;;;;488772;243;954;-68
2021/09/27 03:04:31;;;;;;;;;;;23.80;53.80;;;;;;488790;243;1120;-68
2021/09/27 03:06:32;;;;;;;;;;;23.80;53.90;;;;;;488781;243;1116;-68
2021/09/27 03:08:34;;;;;;;;;;;23.90;53.80;;;;;;488849;243;2150;-68
2021/09/27 03:10:35;;;;;;;;;;;23.80;54.00;;;;;;488841;243;1141;-69
2021/09/27 03:12:36;;;;;;;;;;;23.80;54.00;;;;;;488815;243;1124;-68
2021/09/27 03:14:38;;;;;;;;;;;23.80;54.00;;;;;;488819;243;1196;-68
2021/09/27 03:16:39;;;;;;;;;;;23.80;53.90;;;;;;488835;243;1178;-68
2021/09/27 03:18:41;;;;;;;;;;;23.80;54.00;;;;;;488946;243;1135;-68
2021/09/27 03:20:42;;;;;;;;;;;23.80;54.00;;;;;;488806;243;1018;-68
2021/09/27 03:22:43;;;;;;;;;;;23.80;54.00;;;;;;488840;243;1104;-68
2021/09/27 03:24:45;;;;;;;;;;;23.80;53.90;;;;;;488853;243;1005;-68
2021/09/27 03:26:46;;;;;;;;;;;23.90;53.70;;;;;;488818;243;1118;-68
2021/09/27 03:28:47;;;;;;;;;;;23.80;53.90;;;;;;488854;243;2181;-68
2021/09/27 03:30:49;;;;;;;;;;;23.90;53.80;;;;;;488816;243;1135;-68
2021/09/27 03:32:51;;;;;;;;;;;23.90;53.80;;;;;;488886;243;1239;-68
2021/09/27 03:34:52;;;;;;;;;;;24.00;53.60;;;;;;488764;243;1062;-68
2021/09/27 03:36:53;;;;;;;;;;;24.20;53.10;;;;;;488696;243;1204;-68
2021/09/27 03:38:54;;;;;;;;;;;24.10;53.30;;;;;;488761;243;1168;-68
2021/09/27 03:40:56;;;;;;;;;;;24.20;53.00;;;;;;488794;243;1147;-68
2021/09/27 03:42:57;;;;;;;;;;;24.20;52.90;;;;;;488872;243;1207;-68
2021/09/27 03:44:58;;;;;;;;;;;24.30;52.90;;;;;;488889;243;991;-69
2021/09/27 03:47:00;;;;;;;;;;;24.30;52.50;;;;;;488720;243;2131;-68
2021/09/27 03:49:01;;;;;;;;;;;24.40;52.60;;;;;;488812;243;1137;-68
2021/09/27 03:51:02;;;;;;;;;;;24.40;52.40;;;;;;488767;243;1135;-68
2021/09/27 03:53:04;;;;;;;;;;;24.40;52.30;;;;;;488772;243;1161;-68
2021/09/27 03:55:05;;;;;;;;;;;24.50;52.20;;;;;;488854;243;1022;-68
2021/09/27 03:57:06;;;;;;;;;;;24.50;52.20;;;;;;488761;243;1215;-68
2021/09/27 03:59:07;;;;;;;;;;;24.50;52.20;;;;;;488846;243;972;-68
2021/09/27 04:01:09;;;;;;;;;;;24.50;52.00;;;;;;488781;243;1139;-68
2021/09/27 04:03:10;;;;;;;;;;;24.70;51.70;;;;;;488874;243;1043;-68
2021/09/27 04:05:11;;;;;;;;;;;24.70;51.60;;;;;;488789;243;1081;-68
2021/09/27 04:07:13;;;;;;;;;;;24.60;51.80;;;;;;488750;243;2197;-68
2021/09/27 04:09:14;;;;;;;;;;;24.50;51.80;;;;;;488849;243;1113;-68
2021/09/27 04:11:15;;;;;;;;;;;24.70;51.60;;;;;;488893;243;1142;-68
2021/09/27 04:13:17;;;;;;;;;;;24.60;51.70;;;;;;488764;243;1069;-68
2021/09/27 04:15:18;;;;;;;;;;;24.70;51.70;;;;;;488831;243;1036;-68
2021/09/27 04:17:20;;;;;;;;;;;24.60;51.80;;;;;;488682;243;1049;-68
2021/09/27 04:19:21;;;;;;;;;;;24.60;51.80;;;;;;488725;243;994;-68
2021/09/27 04:21:22;;;;;;;;;;;24.60;51.90;;;;;;488743;243;1044;-68
2021/09/27 04:23:24;;;;;;;;;;;24.60;51.70;;;;;;488708;239;1263;-68
2021/09/27 04:25:25;;;;;;;;;;;24.60;51.70;;;;;;488677;243;1039;-68
2021/09/27 04:27:26;;;;;;;;;;;24.60;51.70;;;;;;488742;243;2170;-68
2021/09/27 04:29:28;;;;;;;;;;;24.60;51.70;;;;;;488722;243;1094;-68
2021/09/27 04:31:32;;;;;;;;;;;24.70;51.70;;;;;;488738;243;1337;-68
2021/09/27 04:33:30;;;;;;;;;;;24.60;51.70;;;;;;488575;243;1361;-68
2021/09/27 04:35:32;;;;;;;;;;;24.70;51.50;;;;;;488722;243;1098;-68
2021/09/27 04:37:33;;;;;;;;;;;24.80;51.50;;;;;;488624;243;1097;-68
2021/09/27 04:39:34;;;;;;;;;;;24.70;51.60;;;;;;488660;243;1364;-68
2021/09/27 04:41:36;;;;;;;;;;;24.60;51.80;;;;;;488670;243;1102;-68
2021/09/27 04:43:37;;;;;;;;;;;24.70;51.60;;;;;;488749;243;1089;-68
2021/09/27 04:45:39;;;;;;;;;;;24.60;51.60;;;;;;488723;243;1102;-68
2021/09/27 04:47:40;;;;;;;;;;;24.70;51.60;;;;;;488565;243;2181;-68
2021/09/27 04:49:41;;;;;;;;;;;24.60;51.60;;;;;;488553;243;1055;-68
2021/09/27 04:51:42;;;;;;;;;;;24.70;51.50;;;;;;488476;243;1181;-68
2021/09/27 04:53:44;;;;;;;;;;;24.70;51.60;;;;;;488478;243;1165;-68
2021/09/27 04:55:45;;;;;;;;;;;24.60;51.60;;;;;;488526;243;1088;-68
2021/09/27 04:57:46;;;;;;;;;;;24.60;51.70;;;;;;488555;243;1175;-68
2021/09/27 04:59:48;;;;;;;;;;;24.60;51.80;;;;;;488587;243;1090;-68
2021/09/27 05:01:49;;;;;;;;;;;24.70;51.50;;;;;;488431;243;1158;-68
2021/09/27 05:03:50;;;;;;;;;;;24.60;51.50;;;;;;488415;243;1215;-68
2021/09/27 05:05:52;;;;;;;;;;;24.70;51.60;;;;;;488525;243;1059;-68
2021/09/27 05:07:53;;;;;;;;;;;24.70;51.50;;;;;;488486;243;2127;-68
2021/09/27 05:09:54;;;;;;;;;;;24.80;51.40;;;;;;488631;243;1222;-68
2021/09/27 05:11:56;;;;;;;;;;;24.80;51.30;;;;;;488492;243;1074;-68
2021/09/27 05:13:57;;;;;;;;;;;24.80;51.20;;;;;;488492;243;1069;-68
2021/09/27 05:15:59;;;;;;;;;;;24.80;51.20;;;;;;488395;243;1198;-68
2021/09/27 05:18:00;;;;;;;;;;;24.80;51.30;;;;;;488328;243;1064;-68
2021/09/27 05:20:01;;;;;;;;;;;24.80;51.20;;;;;;488419;243;1083;-68
2021/09/27 05:22:03;;;;;;;;;;;24.60;51.50;;;;;;488506;243;1165;-68
2021/09/27 05:24:04;;;;;;;;;;;24.70;51.40;;;;;;488498;243;1110;-68
2021/09/27 05:26:05;;;;;;;;;;;24.60;51.50;;;;;;488416;243;1129;-68
2021/09/27 05:28:07;;;;;;;;;;;24.60;51.40;;;;;;488420;243;2135;-68
2021/09/27 05:30:08;;;;;;;;;;;24.60;51.50;;;;;;488387;243;1020;-68
2021/09/27 05:32:09;;;;;;;;;;;24.60;51.50;;;;;;488309;243;1167;-68
2021/09/27 05:34:11;;;;;;;;;;;24.60;51.50;;;;;;488385;243;1094;-68
2021/09/27 05:36:12;;;;;;;;;;;24.60;51.40;;;;;;488303;243;1184;-68
2021/09/27 05:38:13;;;;;;;;;;;24.70;51.40;;;;;;488310;243;1153;-68
2021/09/27 05:40:15;;;;;;;;;;;24.50;51.70;;;;;;488368;243;1171;-68
2021/09/27 05:42:16;;;;;;;;;;;24.60;51.60;;;;;;488388;243;1220;-68
2021/09/27 05:44:17;;;;;;;;;;;24.70;51.40;;;;;;488499;243;1058;-68
2021/09/27 05:46:18;;;;;;;;;;;24.70;51.20;;;;;;488505;243;1089;-68
2021/09/27 05:48:20;;;;;;;;;;;24.80;51.20;;;;;;488487;243;2181;-68
2021/09/27 05:50:21;;;;;;;;;;;24.80;51.20;;;;;;488445;243;1061;-68
2021/09/27 05:52:22;;;;;;;;;;;24.70;51.20;;;;;;488384;243;1082;-68
2021/09/27 05:54:24;;;;;;;;;;;24.70;51.30;;;;;;488488;243;1201;-68
2021/09/27 05:56:25;;;;;;;;;;;24.70;51.30;;;;;;488217;243;1095;-68
2021/09/27 05:58:26;;;;;;;;;;;24.60;51.40;;;;;;488301;243;1075;-68
2021/09/27 06:00:28;;;;;;;;;;;24.60;51.40;;;;;;488346;243;1078;-68
2021/09/27 06:02:29;;;;;;;;;;;24.50;51.60;;;;;;488113;243;1070;-68
2021/09/27 06:04:30;;;;;;;;;;;24.50;51.60;;;;;;488277;243;1097;-68
2021/09/27 06:06:34;;;;;;;;;;;24.60;51.50;;;;;;488285;243;1058;-68
2021/09/27 06:08:33;;;;;;;;;;;24.80;51.20;;;;;;488343;243;2190;-68
2021/09/27 06:10:35;;;;;;;;;;;24.70;51.10;;;;;;488451;243;1172;-68
2021/09/27 06:12:37;;;;;;;;;;;24.80;51.00;;;;;;488406;243;1036;-68
2021/09/27 06:14:37;;;;;;;;;;;24.80;51.10;;;;;;488391;243;1372;-68
2021/09/27 06:16:38;;;;;;;;;;;24.80;51.10;;;;;;488215;243;1116;-68
2021/09/27 06:18:40;;;;;;;;;;;24.80;50.90;;;;;;488202;243;1098;-68
2021/09/27 06:20:41;;;;;;;;;;;24.70;51.10;;;;;;488151;243;1187;-68
2021/09/27 06:22:42;;;;;;;;;;;24.60;51.30;;;;;;488343;243;1168;-68
2021/09/27 06:24:44;;;;;;;;;;;24.50;51.60;;;;;;488311;243;1128;-68
2021/09/27 06:26:45;;;;;;;;;;;24.60;51.50;;;;;;488150;243;1086;-68
2021/09/27 06:28:46;;;;;;;;;;;24.70;51.30;;;;;;488100;243;2135;-68
2021/09/27 06:30:48;;;;;;;;;;;24.70;51.20;;;;;;488153;243;1125;-68
2021/09/27 06:32:51;;;;;;;;;;;24.70;51.10;;;;;;488201;243;1059;-68
2021/09/27 06:34:52;;;;;;;;;;;24.70;51.30;;;;;;488072;243;1096;-68
2021/09/27 06:36:54;;;;;;;;;;;24.70;51.30;;;;;;488119;243;1212;-68
2021/09/27 06:38:55;;;;;;;;;;;24.70;51.20;;;;;;488020;243;1085;-69
2021/09/27 06:40:56;;;;;;;;;;;24.60;51.40;;;;;;487803;243;1177;-68
2021/09/27 06:42:57;;;;;;;;;;;24.70;51.40;;;;;;488127;243;1091;-68
2021/09/27 06:44:59;;;;;;;;;;;24.70;51.30;;;;;;488078;243;1075;-68
2021/09/27 06:47:00;;;;;;;;;;;24.80;51.10;;;;;;488123;243;1130;-68
2021/09/27 06:49:01;;;;;;;;;;;24.70;51.20;;;;;;488005;243;2173;-68
2021/09/27 06:51:03;;;;;;;;;;;24.80;51.10;;;;;;487866;243;1145;-68
2021/09/27 06:53:04;;;;;;;;;;;24.70;51.20;;;;;;487896;243;1049;-68
2021/09/27 06:55:05;;;;;;;;;;;24.70;51.40;;;;;;487890;243;1130;-68
2021/09/27 06:57:07;;;;;;;;;;;24.80;51.30;;;;;;487707;243;1258;-68
2021/09/27 06:59:08;;;;;;;;;;;24.80;51.30;;;;;;487764;243;1286;-69
2021/09/27 07:01:09;;;;;;;;;;;24.80;51.20;;;;;;487698;243;1103;-68
2021/09/27 07:03:11;;;;;;;;;;;24.80;51.10;;;;;;487750;243;1126;-68
2021/09/27 07:05:12;;;;;;;;;;;24.80;51.10;;;;;;487787;243;1115;-68
2021/09/27 07:07:13;;;;;;;;;;;24.80;51.20;;;;;;487588;243;1120;-68
2021/09/27 07:09:15;;;;;;;;;;;24.80;51.40;;;;;;487547;243;2197;-68
2021/09/27 07:11:16;;;;;;;;;;;24.80;51.20;;;;;;487600;243;1188;-68
2021/09/27 07:13:17;;;;;;;;;;;24.80;51.40;;;;;;487580;243;1141;-69
2021/09/27 07:15:19;;;;;;;;;;;24.80;51.10;;;;;;487655;243;1073;-69
2021/09/27 07:17:20;;;;;;;;;;;24.80;51.30;;;;;;487569;243;1090;-68
2021/09/27 07:19:21;;;;;;;;;;;24.80;51.20;;;;;;487590;243;1182;-69
2021/09/27 07:21:23;;;;;;;;;;;24.80;51.40;;;;;;487649;243;1091;-68
2021/09/27 07:23:24;;;;;;;;;;;24.80;51.30;;;;;;487070;243;1085;-69
2021/09/27 07:25:25;;;;;;;;;;;24.80;51.30;;;;;;487653;243;1274;-68
2021/09/27 07:27:27;;;;;;;;;;;24.80;51.40;;;;;;487657;243;1084;-68
2021/09/27 07:29:28;;;;;;;;;;;24.80;51.40;;;;;;487530;243;2130;-69
2021/09/27 07:31:31;;;;;;;;;;;24.80;51.40;;;;;;487680;243;1241;-68
2021/09/27 07:33:30;;;;;;;;;;;24.80;51.40;;;;;;487574;243;1399;-68
2021/09/27 07:35:32;;;;;;;;;;;24.80;51.30;;;;;;487744;243;1102;-69
2021/09/27 07:37:33;;;;;;;;;;;24.80;51.50;;;;;;487411;243;1167;-68
2021/09/27 07:39:35;;;;;;;;;;;24.80;51.50;;;;;;487378;243;1109;-68
2021/09/27 07:41:36;;;;;;;;;;;24.80;51.30;;;;;;487447;243;1174;-68
2021/09/27 07:43:37;;;;;;;;;;;24.90;51.40;;;;;;487471;243;1068;-68
2021/09/27 07:45:39;;;;;;;;;;;24.90;51.40;;;;;;487469;243;1058;-69
2021/09/27 07:47:40;;;;;;;;;;;24.90;51.40;;;;;;487301;243;1112;-69
2021/09/27 07:49:41;;;;;;;;;;;24.90;51.40;;;;;;487460;243;2103;-69
2021/09/27 07:51:43;;;;;;;;;;;24.80;51.40;;;;;;487606;243;1229;-69
2021/09/27 07:53:44;;;;;;;;;;;24.80;51.50;;;;;;487592;243;1084;-69
2021/09/27 07:55:45;;;;;;;;;;;24.90;51.30;;;;;;487544;243;1247;-69
2021/09/27 07:57:47;;;;;;;;;;;24.90;51.30;;;;;;487434;243;1394;-69
2021/09/27 07:59:50;;;;;;;;;;;24.90;51.40;;;;;;487196;243;1060;-69
2021/09/27 08:01:49;;;;;;;;;;;24.80;51.60;;;;;;486958;243;1326;-69
2021/09/27 08:03:51;;;;;;;;;;;24.70;51.70;;;;;;487314;243;1185;-68
2021/09/27 08:05:52;;;;;;;;;;;24.80;51.70;;;;;;487402;243;1246;-68
2021/09/27 08:07:53;;;;;;;;;;;24.80;51.60;;;;;;487363;243;1079;-68
2021/09/27 08:09:55;;;;;;;;;;;24.80;51.50;;;;;;487461;243;2177;-68
2021/09/27 08:11:56;;;;;;;;;;;24.80;51.60;;;;;;487471;243;1283;-68
2021/09/27 08:13:57;;;;;;;;;;;24.70;51.80;;;;;;487454;243;1079;-68
2021/09/27 08:15:58;;;;;;;;;;;24.80;51.60;;;;;;487558;243;1135;-68
2021/09/27 08:18:00;;;;;;;;;;;24.90;51.50;;;;;;487563;243;1081;-68
2021/09/27 08:20:02;;;;;;;;;;;24.80;51.70;;;;;;487508;243;1101;-68
2021/09/27 08:22:02;;;;;;;;;;;24.80;51.50;;;;;;487408;243;1258;-68
2021/09/27 08:24:04;;;;;;;;;;;24.70;51.70;;;;;;487560;243;1424;-68
2021/09/27 08:26:05;;;;;;;;;;;24.80;51.60;;;;;;487480;243;1187;-68
2021/09/27 08:28:07;;;;;;;;;;;24.70;51.80;;;;;;487430;243;1061;-69
2021/09/27 08:30:08;;;;;;;;;;;24.80;51.80;;;;;;487493;243;2181;-69
2021/09/27 08:32:09;;;;;;;;;;;24.80;51.70;;;;;;487487;243;1077;-68
2021/09/27 08:34:11;;;;;;;;;;;24.80;51.70;;;;;;487603;243;1176;-68
2021/09/27 08:36:12;;;;;;;;;;;24.70;51.80;;;;;;487738;243;1074;-68
2021/09/27 08:38:15;;;;;;;;;;;24.80;51.80;;;;;;487541;243;1064;-68
2021/09/27 08:40:15;;;;;;;;;;;24.80;51.70;;;;;;487427;243;1408;-69
2021/09/27 08:42:16;;;;;;;;;;;24.80;51.70;;;;;;487641;243;1192;-68
2021/09/27 08:44:17;;;;;;;;;;;24.80;51.70;;;;;;487617;243;1173;-68
2021/09/27 08:46:19;;;;;;;;;;;24.80;51.80;;;;;;487662;243;1105;-68
2021/09/27 08:48:20;;;;;;;;;;;24.80;51.60;;;;;;487710;243;1154;-68
2021/09/27 08:50:21;;;;;;;;;;;24.80;51.70;;;;;;487767;243;2185;-68
2021/09/27 08:52:23;;;;;;;;;;;24.80;51.60;;;;;;487366;243;1103;-68
2021/09/27 08:54:24;;;;;;;;;;;24.80;51.60;;;;;;487485;243;1091;-68
2021/09/27 08:56:26;;;;;;;;;;;24.80;51.70;;;;;;487617;243;1482;-68
2021/09/27 08:58:27;;;;;;;;;;;24.80;51.70;;;;;;487795;243;1192;-68
2021/09/27 09:00:28;;;;;;;;;;;24.80;51.70;;;;;;487673;243;1079;-68
2021/09/27 09:02:30;;;;;;;;;;;24.90;51.70;;;;;;487789;243;1068;-68
2021/09/27 09:04:31;;;;;;;;;;;24.90;51.60;;;;;;487681;243;1089;-68
2021/09/27 09:06:32;;;;;;;;;;;24.80;51.60;;;;;;487467;243;1061;-68
2021/09/27 09:08:33;;;;;;;;;;;24.80;51.70;;;;;;487656;243;1114;-68
2021/09/27 09:10:35;;;;;;;;;;;24.80;51.80;;;;;;487523;243;2190;-68
2021/09/27 09:12:36;;;;;;;;;;;24.80;51.80;;;;;;487887;243;1165;-68
2021/09/27 09:14:39;;;;;;;;;;;24.90;51.70;;;;;;487724;243;1051;-68
2021/09/27 09:16:40;;;;;;;;;;;24.80;51.70;;;;;;487484;243;1229;-68
2021/09/27 09:18:40;;;;;;;;;;;24.90;51.60;;;;;;487542;243;1553;-68
2021/09/27 09:20:42;;;;;;;;;;;24.80;51.70;;;;;;487677;243;1170;-69
2021/09/27 09:22:43;;;;;;;;;;;24.90;51.70;;;;;;487814;243;1095;-68
2021/09/27 09:24:46;;;;;;;;;;;24.80;51.60;;;;;;487727;243;1092;-68
2021/09/27 09:26:46;;;;;;;;;;;24.90;51.60;;;;;;487642;243;1329;-68
2021/09/27 09:28:47;;;;;;;;;;;24.80;51.90;;;;;;487527;243;1271;-68
2021/09/27 09:30:48;;;;;;;;;;;24.80;52.00;;;;;;487690;243;2200;-68
2021/09/27 09:32:50;;;;;;;;;;;24.90;51.90;;;;;;487697;243;1182;-68
2021/09/27 09:34:51;;;;;;;;;;;24.90;51.60;;;;;;487891;243;800;-68
2021/09/27 09:36:52;;;;;;;;;;;24.90;51.70;;;;;;488085;243;1623;-68
2021/09/27 09:38:54;;;;;;;;;;;24.90;51.80;;;;;;488130;243;1030;-68
2021/09/27 09:40:55;;;;;;;;;;;24.90;51.70;;;;;;488036;243;1102;-68
2021/09/27 09:42:56;;;;;;;;;;;24.90;51.70;;;;;;487828;243;1029;-68
2021/09/27 09:44:57;;;;;;;;;;;24.80;51.90;;;;;;488327;243;814;-68
2021/09/27 09:46:59;;;;;;;;;;;24.80;52.10;;;;;;487619;243;1258;-68
2021/09/27 09:49:01;;;;;;;;;;;24.90;51.80;;;;;;487751;243;725;-68
2021/09/27 09:51:02;;;;;;;;;;;24.90;51.80;;;;;;488122;243;2178;-68
2021/09/27 09:53:03;;;;;;;;;;;24.80;51.80;;;;;;488233;243;1179;-68
2021/09/27 09:55:04;;;;;;;;;;;24.90;51.80;;;;;;488255;243;801;-69
2021/09/27 09:57:06;;;;;;;;;;;24.80;51.90;;;;;;488039;243;1175;-68
2021/09/27 09:59:07;;;;;;;;;;;24.80;52.00;;;;;;488230;243;808;-68
2021/09/27 10:01:08;;;;;;;;;;;24.80;51.90;;;;;;488323;243;727;-68
2021/09/27 10:03:10;;;;;;;;;;;24.90;51.80;;;;;;488190;243;991;-68
2021/09/27 10:05:11;;;;;;;;;;;24.90;51.70;;;;;;488344;243;816;-68
2021/09/27 10:07:12;;;;;;;;;;;24.90;51.70;;;;;;488234;243;1129;-68
2021/09/27 10:09:14;;;;;;;;;;;24.90;51.70;;;;;;487916;243;2173;-68
2021/09/27 10:11:15;;;;;;;;;;;24.90;51.70;;;;;;488346;243;1114;-68
2021/09/27 10:13:16;;;;;;;;;;;24.80;51.70;;;;;;487884;243;1338;-68
2021/09/27 10:15:18;;;;;;;;;;;24.90;51.60;;;;;;488404;243;745;-68
2021/09/27 10:17:19;;;;;;;;;;;24.90;51.60;;;;;;488266;243;1079;-68
2021/09/27 10:19:20;;;;;;;;;;;24.90;51.70;;;;;;488393;243;838;-68
2021/09/27 10:21:22;;;;;;;;;;;24.90;51.60;;;;;;488297;243;1479;-68
2021/09/27 10:23:23;;;;;;;;;;;24.80;51.80;;;;;;488369;243;851;-68
2021/09/27 10:25:24;;;;;;;;;;;24.80;51.80;;;;;;488318;243;841;-68
2021/09/27 10:27:26;;;;;;;;;;;24.90;51.50;;;;;;487741;243;1018;-69
2021/09/27 10:29:27;;;;;;;;;;;24.90;51.60;;;;;;488141;243;2241;-68
2021/09/27 10:31:28;;;;;;;;;;;24.90;51.50;;;;;;487550;243;953;-68
2021/09/27 10:33:30;;;;;;;;;;;24.90;51.60;;;;;;487920;243;798;-68
2021/09/27 10:35:32;;;;;;;;;;;24.90;51.50;;;;;;487653;243;836;-68
2021/09/27 10:37:32;;;;;;;;;;;24.80;51.60;;;;;;488112;243;1291;-68
2021/09/27 10:39:34;;;;;;;;;;;24.90;51.50;;;;;;487840;243;851;-68
2021/09/27 10:41:35;;;;;;;;;;;24.90;51.70;;;;;;488358;243;1232;-68
2021/09/27 10:43:36;;;;;;;;;;;24.90;51.70;;;;;;488156;243;1191;-68
2021/09/27 10:45:38;;;;;;;;;;;24.90;51.70;;;;;;488499;243;787;-68
2021/09/27 10:47:39;;;;;;;;;;;24.80;51.80;;;;;;488008;243;1063;-68
2021/09/27 10:49:40;;;;;;;;;;;24.80;52.00;;;;;;488496;243;2173;-68
2021/09/27 10:51:42;;;;;;;;;;;24.80;51.80;;;;;;487967;243;1199;-68
2021/09/27 10:53:43;;;;;;;;;;;24.80;51.90;;;;;;487942;243;834;-68
2021/09/27 10:55:44;;;;;;;;;;;24.80;52.00;;;;;;487970;243;1273;-68
2021/09/27 10:57:45;;;;;;;;;;;24.80;51.80;;;;;;488152;243;1376;-68
2021/09/27 10:59:47;;;;;;;;;;;24.90;51.80;;;;;;487884;243;806;-68
2021/09/27 11:01:48;;;;;;;;;;;24.80;51.70;;;;;;488231;243;815;-68
2021/09/27 11:03:52;;;;;;;;;;;24.80;51.70;;;;;;488258;243;859;-68
2021/09/27 11:05:54;;;;;;;;;;;24.90;51.70;;;;;;487809;243;1292;-68
2021/09/27 11:07:53;;;;;;;;;;;24.90;51.60;;;;;;488315;243;1268;-68
2021/09/27 11:09:54;;;;;;;;;;;24.80;51.70;;;;;;488490;243;2170;-69
2021/09/27 11:11:57;;;;;;;;;;;24.90;51.50;;;;;;488442;243;821;-69
2021/09/27 11:13:58;;;;;;;;;;;25.10;51.30;;;;;;488015;243;1572;-68
2021/09/27 11:15:59;;;;;;;;;;;24.90;51.30;;;;;;488242;243;763;-68
2021/09/27 11:18:00;;;;;;;;;;;24.90;51.40;;;;;;488081;243;1310;-68
2021/09/27 11:20:02;;;;;;;;;;;24.90;51.40;;;;;;487820;243;840;-68
2021/09/27 11:22:03;;;;;;;;;;;24.90;51.30;;;;;;488213;243;808;-68
2021/09/27 11:24:04;;;;;;;;;;;25.00;51.30;;;;;;488329;243;1027;-69
2021/09/27 11:26:06;;;;;;;;;;;24.90;51.40;;;;;;488336;243;1043;-68
2021/09/27 11:28:07;;;;;;;;;;;24.90;51.40;;;;;;488330;243;1248;-68
2021/09/27 11:30:08;;;;;;;;;;;24.90;51.30;;;;;;487988;243;2189;-68
2021/09/27 11:32:10;;;;;;;;;;;24.90;51.50;;;;;;487964;243;911;-68
2021/09/27 11:34:11;;;;;;;;;;;24.90;51.60;;;;;;488340;243;793;-68
2021/09/27 11:36:12;;;;;;;;;;;24.80;51.50;;;;;;487976;243;848;-68
2021/09/27 11:38:14;;;;;;;;;;;24.80;51.60;;;;;;487924;243;864;-68
2021/09/27 11:40:15;;;;;;;;;;;24.90;51.50;;;;;;488042;243;763;-68
2021/09/27 11:42:16;;;;;;;;;;;24.90;51.60;;;;;;488255;243;774;-68
2021/09/27 11:44:17;;;;;;;;;;;24.80;51.60;;;;;;487946;243;1210;-68
2021/09/27 11:46:20;;;;;;;;;;;24.90;51.50;;;;;;488228;243;1320;-68
2021/09/27 11:48:20;;;;;;;;;;;24.80;51.50;;;;;;487637;243;1274;-68
2021/09/27 11:50:27;;;;;;;;;;;24.80;51.70;;;;;;487693;243;2189;-68
2021/09/27 11:52:23;;;;;;;;;;;24.80;51.60;;;;;;487229;243;1299;-68
2021/09/27 11:54:24;;;;;;;;;;;24.70;51.80;;;;;;487950;243;880;-68
2021/09/27 11:56:25;;;;;;;;;;;24.80;51.80;;;;;;488139;243;1375;-68